sensor_id;sensor_type;location;lat;lon;timestamp;temperature;humidity
29413;DHT22;16389;50.126;8.450;2022-07-17T00:01:32;16.50;80.80
29413;DHT22;16389;50.126;8.450;2022-07-17T00:03:58;16.40;81.60
29413;DHT22;16389;50.126;8.450;2022-07-17T00:06:23;16.40;81.40
29413;DHT22;16389;50.126;8.450;2022-07-17T00:08:49;16.40;81.20
29413;DHT22;16389;50.126;8.450;2022-07-17T00:11:15;16.40;81.40
29413;DHT22;16389;50.126;8.450;2022-07-17T00:13:41;16.40;80.40
29413;DHT22;16389;50.126;8.450;2022-07-17T00:16:07;16.40;80.00
29413;DHT22;16389;50.126;8.450;2022-07-17T00:18:32;16.30;80.60
29413;DHT22;16389;50.126;8.450;2022-07-17T00:20:58;16.30;79.80
29413;DHT22;16389;50.126;8.450;2022-07-17T00:23:24;16.30;80.60
29413;DHT22;16389;50.126;8.450;2022-07-17T00:25:49;16.30;80.40
29413;DHT22;16389;50.126;8.450;2022-07-17T00:28:15;16.30;80.20
29413;DHT22;16389;50.126;8.450;2022-07-17T00:30:40;16.20;80.40
29413;DHT22;16389;50.126;8.450;2022-07-17T00:33:06;16.10;80.50
29413;DHT22;16389;50.126;8.450;2022-07-17T00:35:32;16.10;79.90
29413;DHT22;16389;50.126;8.450;2022-07-17T00:37:57;16.10;80.20
29413;DHT22;16389;50.126;8.450;2022-07-17T00:40:24;16.00;81.60
29413;DHT22;16389;50.126;8.450;2022-07-17T00:42:50;15.90;81.60
29413;DHT22;16389;50.126;8.450;2022-07-17T00:45:16;15.90;81.20
29413;DHT22;16389;50.126;8.450;2022-07-17T00:48:00;15.90;81.30
29413;DHT22;16389;50.126;8.450;2022-07-17T00:50:32;15.90;81.60
29413;DHT22;16389;50.126;8.450;2022-07-17T00:52:58;15.80;82.50
29413;DHT22;16389;50.126;8.450;2022-07-17T00:55:24;15.80;82.60
29413;DHT22;16389;50.126;8.450;2022-07-17T00:57:50;15.80;83.00
29413;DHT22;16389;50.126;8.450;2022-07-17T01:00:17;15.80;83.40
29413;DHT22;16389;50.126;8.450;2022-07-17T01:02:51;15.70;83.60
29413;DHT22;16389;50.126;8.450;2022-07-17T01:05:18;15.60;83.70
29413;DHT22;16389;50.126;8.450;2022-07-17T01:07:44;15.60;84.00
29413;DHT22;16389;50.126;8.450;2022-07-17T01:10:11;15.50;84.40
29413;DHT22;16389;50.126;8.450;2022-07-17T01:12:37;15.50;84.50
29413;DHT22;16389;50.126;8.450;2022-07-17T01:15:04;15.50;84.40
29413;DHT22;16389;50.126;8.450;2022-07-17T01:17:31;15.50;84.80
29413;DHT22;16389;50.126;8.450;2022-07-17T01:19:57;15.50;85.30
29413;DHT22;16389;50.126;8.450;2022-07-17T01:22:22;15.50;84.70
29413;DHT22;16389;50.126;8.450;2022-07-17T01:24:48;15.50;85.50
29413;DHT22;16389;50.126;8.450;2022-07-17T01:27:15;15.50;85.20
29413;DHT22;16389;50.126;8.450;2022-07-17T01:29:41;15.50;85.00
29413;DHT22;16389;50.126;8.450;2022-07-17T01:32:07;15.50;85.30
29413;DHT22;16389;50.126;8.450;2022-07-17T01:34:32;15.40;85.00
29413;DHT22;16389;50.126;8.450;2022-07-17T01:36:58;15.50;84.70
29413;DHT22;16389;50.126;8.450;2022-07-17T01:39:24;15.40;85.10
29413;DHT22;16389;50.126;8.450;2022-07-17T01:42:09;15.40;85.10
29413;DHT22;16389;50.126;8.450;2022-07-17T01:44:35;15.40;84.90
29413;DHT22;16389;50.126;8.450;2022-07-17T01:47:01;15.40;85.60
29413;DHT22;16389;50.126;8.450;2022-07-17T01:49:27;15.30;85.70
29413;DHT22;16389;50.126;8.450;2022-07-17T01:51:53;15.20;85.90
29413;DHT22;16389;50.126;8.450;2022-07-17T01:54:18;15.20;85.90
29413;DHT22;16389;50.126;8.450;2022-07-17T01:56:44;15.10;86.20
29413;DHT22;16389;50.126;8.450;2022-07-17T01:59:10;15.10;86.70
29413;DHT22;16389;50.126;8.450;2022-07-17T02:01:35;15.10;86.90
29413;DHT22;16389;50.126;8.450;2022-07-17T02:04:01;15.10;87.20
29413;DHT22;16389;50.126;8.450;2022-07-17T02:06:27;15.10;87.00
29413;DHT22;16389;50.126;8.450;2022-07-17T02:08:52;15.00;86.60
29413;DHT22;16389;50.126;8.450;2022-07-17T02:11:18;14.90;87.00
29413;DHT22;16389;50.126;8.450;2022-07-17T02:13:44;14.90;87.50
29413;DHT22;16389;50.126;8.450;2022-07-17T02:16:09;14.90;87.80
29413;DHT22;16389;50.126;8.450;2022-07-17T02:18:35;14.80;88.50
29413;DHT22;16389;50.126;8.450;2022-07-17T02:21:01;14.80;88.80
29413;DHT22;16389;50.126;8.450;2022-07-17T02:23:26;14.70;89.20
29413;DHT22;16389;50.126;8.450;2022-07-17T02:25:54;14.80;89.50
29413;DHT22;16389;50.126;8.450;2022-07-17T02:28:20;14.70;89.50
29413;DHT22;16389;50.126;8.450;2022-07-17T02:30:46;14.70;90.00
29413;DHT22;16389;50.126;8.450;2022-07-17T02:33:11;14.70;90.10
29413;DHT22;16389;50.126;8.450;2022-07-17T02:35:37;14.70;89.40
29413;DHT22;16389;50.126;8.450;2022-07-17T02:38:03;14.50;90.00
29413;DHT22;16389;50.126;8.450;2022-07-17T02:40:28;14.60;89.90
29413;DHT22;16389;50.126;8.450;2022-07-17T02:42:54;14.50;90.20
29413;DHT22;16389;50.126;8.450;2022-07-17T02:45:20;14.50;90.50
29413;DHT22;16389;50.126;8.450;2022-07-17T02:47:50;14.40;90.60
29413;DHT22;16389;50.126;8.450;2022-07-17T02:50:16;14.40;90.60
29413;DHT22;16389;50.126;8.450;2022-07-17T02:52:42;14.40;90.90
29413;DHT22;16389;50.126;8.450;2022-07-17T02:55:10;14.30;90.60
29413;DHT22;16389;50.126;8.450;2022-07-17T02:57:37;14.30;91.00
29413;DHT22;16389;50.126;8.450;2022-07-17T03:00:08;14.30;91.10
29413;DHT22;16389;50.126;8.450;2022-07-17T03:02:34;14.20;91.10
29413;DHT22;16389;50.126;8.450;2022-07-17T03:05:00;14.20;91.40
29413;DHT22;16389;50.126;8.450;2022-07-17T03:07:26;14.20;91.60
29413;DHT22;16389;50.126;8.450;2022-07-17T03:09:51;14.20;91.70
29413;DHT22;16389;50.126;8.450;2022-07-17T03:12:17;14.10;91.50
29413;DHT22;16389;50.126;8.450;2022-07-17T03:14:43;14.10;91.80
29413;DHT22;16389;50.126;8.450;2022-07-17T03:17:08;14.10;91.80
29413;DHT22;16389;50.126;8.450;2022-07-17T03:19:34;14.00;92.10
29413;DHT22;16389;50.126;8.450;2022-07-17T03:22:00;14.00;92.30
29413;DHT22;16389;50.126;8.450;2022-07-17T03:24:26;14.00;92.30
29413;DHT22;16389;50.126;8.450;2022-07-17T03:26:51;14.00;92.60
29413;DHT22;16389;50.126;8.450;2022-07-17T03:29:17;13.90;92.60
29413;DHT22;16389;50.126;8.450;2022-07-17T03:31:44;14.00;92.70
29413;DHT22;16389;50.126;8.450;2022-07-17T03:34:10;14.00;92.60
29413;DHT22;16389;50.126;8.450;2022-07-17T03:36:36;14.00;92.90
29413;DHT22;16389;50.126;8.450;2022-07-17T03:39:01;13.90;92.90
29413;DHT22;16389;50.126;8.450;2022-07-17T03:41:27;13.90;92.50
29413;DHT22;16389;50.126;8.450;2022-07-17T03:43:52;13.90;93.10
29413;DHT22;16389;50.126;8.450;2022-07-17T03:46:18;13.80;93.00
29413;DHT22;16389;50.126;8.450;2022-07-17T03:48:44;13.80;93.30
29413;DHT22;16389;50.126;8.450;2022-07-17T03:51:09;13.90;93.40
29413;DHT22;16389;50.126;8.450;2022-07-17T03:53:35;13.80;93.70
29413;DHT22;16389;50.126;8.450;2022-07-17T03:56:01;13.80;93.40
29413;DHT22;16389;50.126;8.450;2022-07-17T03:58:26;13.80;94.00
29413;DHT22;16389;50.126;8.450;2022-07-17T04:00:52;13.90;94.30
29413;DHT22;16389;50.126;8.450;2022-07-17T04:03:18;13.90;94.30
29413;DHT22;16389;50.126;8.450;2022-07-17T04:05:44;13.90;94.70
29413;DHT22;16389;50.126;8.450;2022-07-17T04:08:09;14.00;94.70
29413;DHT22;16389;50.126;8.450;2022-07-17T04:10:35;13.90;94.80
29413;DHT22;16389;50.126;8.450;2022-07-17T04:13:02;14.00;95.10
29413;DHT22;16389;50.126;8.450;2022-07-17T04:15:27;14.00;95.40
29413;DHT22;16389;50.126;8.450;2022-07-17T04:18:12;14.00;95.50
29413;DHT22;16389;50.126;8.450;2022-07-17T04:20:37;14.10;95.70
29413;DHT22;16389;50.126;8.450;2022-07-17T04:23:03;14.10;96.00
29413;DHT22;16389;50.126;8.450;2022-07-17T04:25:30;14.10;95.90
29413;DHT22;16389;50.126;8.450;2022-07-17T04:27:56;14.20;96.30
29413;DHT22;16389;50.126;8.450;2022-07-17T04:30:22;14.20;95.40
29413;DHT22;16389;50.126;8.450;2022-07-17T04:32:48;14.20;96.10
29413;DHT22;16389;50.126;8.450;2022-07-17T04:35:13;14.30;95.70
29413;DHT22;16389;50.126;8.450;2022-07-17T04:37:39;14.40;96.30
29413;DHT22;16389;50.126;8.450;2022-07-17T04:40:05;14.40;96.50
29413;DHT22;16389;50.126;8.450;2022-07-17T04:42:31;14.50;96.40
29413;DHT22;16389;50.126;8.450;2022-07-17T04:44:57;14.60;96.90
29413;DHT22;16389;50.126;8.450;2022-07-17T04:47:23;14.70;97.00
29413;DHT22;16389;50.126;8.450;2022-07-17T04:49:49;14.70;97.00
29413;DHT22;16389;50.126;8.450;2022-07-17T04:52:14;14.80;97.20
29413;DHT22;16389;50.126;8.450;2022-07-17T04:54:40;14.90;97.30
29413;DHT22;16389;50.126;8.450;2022-07-17T04:57:06;15.00;97.60
29413;DHT22;16389;50.126;8.450;2022-07-17T04:59:31;15.00;97.50
29413;DHT22;16389;50.126;8.450;2022-07-17T05:01:57;15.10;97.70
29413;DHT22;16389;50.126;8.450;2022-07-17T05:04:23;15.20;97.60
29413;DHT22;16389;50.126;8.450;2022-07-17T05:06:49;15.20;98.00
29413;DHT22;16389;50.126;8.450;2022-07-17T05:09:14;15.30;98.10
29413;DHT22;16389;50.126;8.450;2022-07-17T05:11:40;15.30;98.30
29413;DHT22;16389;50.126;8.450;2022-07-17T05:14:05;15.40;98.10
29413;DHT22;16389;50.126;8.450;2022-07-17T05:16:31;15.40;98.40
29413;DHT22;16389;50.126;8.450;2022-07-17T05:18:57;15.40;98.30
29413;DHT22;16389;50.126;8.450;2022-07-17T05:21:22;15.50;98.30
29413;DHT22;16389;50.126;8.450;2022-07-17T05:23:48;15.50;98.50
29413;DHT22;16389;50.126;8.450;2022-07-17T05:26:13;15.60;98.50
29413;DHT22;16389;50.126;8.450;2022-07-17T05:28:39;15.60;98.70
29413;DHT22;16389;50.126;8.450;2022-07-17T05:31:05;15.80;98.90
29413;DHT22;16389;50.126;8.450;2022-07-17T05:33:31;15.80;97.90
29413;DHT22;16389;50.126;8.450;2022-07-17T05:35:57;15.90;97.60
29413;DHT22;16389;50.126;8.450;2022-07-17T05:38:22;15.90;97.40
29413;DHT22;16389;50.126;8.450;2022-07-17T05:40:48;16.00;97.50
29413;DHT22;16389;50.126;8.450;2022-07-17T05:43:13;16.10;96.40
29413;DHT22;16389;50.126;8.450;2022-07-17T05:45:39;16.20;95.70
29413;DHT22;16389;50.126;8.450;2022-07-17T05:48:06;16.20;94.30
29413;DHT22;16389;50.126;8.450;2022-07-17T05:50:32;16.30;94.00
29413;DHT22;16389;50.126;8.450;2022-07-17T05:52:58;16.40;93.40
29413;DHT22;16389;50.126;8.450;2022-07-17T05:55:24;16.50;92.00
29413;DHT22;16389;50.126;8.450;2022-07-17T05:57:50;16.60;92.40
29413;DHT22;16389;50.126;8.450;2022-07-17T06:00:15;16.70;91.40
29413;DHT22;16389;50.126;8.450;2022-07-17T06:02:41;16.80;90.50
29413;DHT22;16389;50.126;8.450;2022-07-17T06:05:07;16.90;89.80
29413;DHT22;16389;50.126;8.450;2022-07-17T06:07:33;17.10;90.00
29413;DHT22;16389;50.126;8.450;2022-07-17T06:09:59;17.20;88.60
29413;DHT22;16389;50.126;8.450;2022-07-17T06:12:24;17.30;88.60
29413;DHT22;16389;50.126;8.450;2022-07-17T06:14:50;17.40;88.30
29413;DHT22;16389;50.126;8.450;2022-07-17T06:17:15;17.50;87.90
29413;DHT22;16389;50.126;8.450;2022-07-17T06:19:41;17.60;85.50
29413;DHT22;16389;50.126;8.450;2022-07-17T06:22:07;17.70;84.70
29413;DHT22;16389;50.126;8.450;2022-07-17T06:24:33;17.80;84.20
29413;DHT22;16389;50.126;8.450;2022-07-17T06:26:58;17.90;83.20
29413;DHT22;16389;50.126;8.450;2022-07-17T06:29:24;18.00;83.30
29413;DHT22;16389;50.126;8.450;2022-07-17T06:31:49;18.10;83.80
29413;DHT22;16389;50.126;8.450;2022-07-17T06:34:15;18.20;82.80
29413;DHT22;16389;50.126;8.450;2022-07-17T06:36:40;18.20;83.80
29413;DHT22;16389;50.126;8.450;2022-07-17T06:39:06;18.30;82.00
29413;DHT22;16389;50.126;8.450;2022-07-17T06:41:32;18.40;81.90
29413;DHT22;16389;50.126;8.450;2022-07-17T06:43:57;18.40;82.00
29413;DHT22;16389;50.126;8.450;2022-07-17T06:46:23;18.60;81.30
29413;DHT22;16389;50.126;8.450;2022-07-17T06:48:49;18.70;80.40
29413;DHT22;16389;50.126;8.450;2022-07-17T06:51:17;18.80;78.40
29413;DHT22;16389;50.126;8.450;2022-07-17T06:53:43;18.90;77.60
29413;DHT22;16389;50.126;8.450;2022-07-17T06:56:08;18.90;77.70
29413;DHT22;16389;50.126;8.450;2022-07-17T06:58:34;19.10;78.50
29413;DHT22;16389;50.126;8.450;2022-07-17T07:01:00;19.20;77.80
29413;DHT22;16389;50.126;8.450;2022-07-17T07:03:25;19.30;78.50
29413;DHT22;16389;50.126;8.450;2022-07-17T07:05:51;19.40;77.90
29413;DHT22;16389;50.126;8.450;2022-07-17T07:08:17;19.50;74.70
29413;DHT22;16389;50.126;8.450;2022-07-17T07:10:43;19.60;75.60
29413;DHT22;16389;50.126;8.450;2022-07-17T07:13:09;19.60;75.50
29413;DHT22;16389;50.126;8.450;2022-07-17T07:15:35;19.70;75.50
29413;DHT22;16389;50.126;8.450;2022-07-17T07:18:00;19.60;74.60
29413;DHT22;16389;50.126;8.450;2022-07-17T07:20:26;19.70;74.90
29413;DHT22;16389;50.126;8.450;2022-07-17T07:22:52;19.80;74.20
29413;DHT22;16389;50.126;8.450;2022-07-17T07:25:18;19.90;75.30
29413;DHT22;16389;50.126;8.450;2022-07-17T07:27:43;20.00;74.50
29413;DHT22;16389;50.126;8.450;2022-07-17T07:30:09;20.20;72.80
29413;DHT22;16389;50.126;8.450;2022-07-17T07:32:39;20.30;73.60
29413;DHT22;16389;50.126;8.450;2022-07-17T07:35:05;20.50;73.00
29413;DHT22;16389;50.126;8.450;2022-07-17T07:37:32;20.60;72.20
29413;DHT22;16389;50.126;8.450;2022-07-17T07:39:58;20.70;71.80
29413;DHT22;16389;50.126;8.450;2022-07-17T07:42:24;20.80;71.00
29413;DHT22;16389;50.126;8.450;2022-07-17T07:44:50;20.90;70.40
29413;DHT22;16389;50.126;8.450;2022-07-17T07:47:16;21.00;70.50
29413;DHT22;16389;50.126;8.450;2022-07-17T07:49:41;21.00;70.00
29413;DHT22;16389;50.126;8.450;2022-07-17T07:52:07;21.20;71.00
29413;DHT22;16389;50.126;8.450;2022-07-17T07:54:33;21.30;69.90
29413;DHT22;16389;50.126;8.450;2022-07-17T07:56:59;21.50;69.70
29413;DHT22;16389;50.126;8.450;2022-07-17T07:59:24;21.60;68.40
29413;DHT22;16389;50.126;8.450;2022-07-17T08:01:50;21.60;69.20
29413;DHT22;16389;50.126;8.450;2022-07-17T08:04:15;21.70;67.90
29413;DHT22;16389;50.126;8.450;2022-07-17T08:06:41;21.70;67.50
29413;DHT22;16389;50.126;8.450;2022-07-17T08:09:07;21.80;69.20
29413;DHT22;16389;50.126;8.450;2022-07-17T08:11:32;22.00;68.20
29413;DHT22;16389;50.126;8.450;2022-07-17T08:13:58;22.30;67.10
29413;DHT22;16389;50.126;8.450;2022-07-17T08:16:24;22.30;65.80
29413;DHT22;16389;50.126;8.450;2022-07-17T08:18:50;22.30;66.80
29413;DHT22;16389;50.126;8.450;2022-07-17T08:21:16;22.30;64.90
29413;DHT22;16389;50.126;8.450;2022-07-17T08:23:41;22.30;64.10
29413;DHT22;16389;50.126;8.450;2022-07-17T08:26:07;22.50;64.90
29413;DHT22;16389;50.126;8.450;2022-07-17T08:28:33;22.60;62.90
29413;DHT22;16389;50.126;8.450;2022-07-17T08:30:58;22.70;62.20
29413;DHT22;16389;50.126;8.450;2022-07-17T08:33:24;22.70;63.00
29413;DHT22;16389;50.126;8.450;2022-07-17T08:35:50;23.00;64.10
29413;DHT22;16389;50.126;8.450;2022-07-17T08:38:15;23.20;61.80
29413;DHT22;16389;50.126;8.450;2022-07-17T08:40:41;23.40;61.60
29413;DHT22;16389;50.126;8.450;2022-07-17T08:43:09;23.40;61.60
29413;DHT22;16389;50.126;8.450;2022-07-17T08:45:37;23.60;60.70
29413;DHT22;16389;50.126;8.450;2022-07-17T08:48:05;23.80;61.20
29413;DHT22;16389;50.126;8.450;2022-07-17T08:50:35;23.90;59.70
29413;DHT22;16389;50.126;8.450;2022-07-17T08:53:01;24.00;60.20
29413;DHT22;16389;50.126;8.450;2022-07-17T08:55:28;24.40;60.20
29413;DHT22;16389;50.126;8.450;2022-07-17T08:57:54;24.60;59.20
29413;DHT22;16389;50.126;8.450;2022-07-17T09:00:22;24.80;58.70
29413;DHT22;16389;50.126;8.450;2022-07-17T09:03:01;25.00;58.10
29413;DHT22;16389;50.126;8.450;2022-07-17T09:05:32;25.10;57.80
29413;DHT22;16389;50.126;8.450;2022-07-17T09:07:59;25.20;57.30
29413;DHT22;16389;50.126;8.450;2022-07-17T09:10:32;25.30;56.60
29413;DHT22;16389;50.126;8.450;2022-07-17T09:12:59;25.30;55.90
29413;DHT22;16389;50.126;8.450;2022-07-17T09:15:26;25.40;56.60
29413;DHT22;16389;50.126;8.450;2022-07-17T09:17:54;25.50;56.20
29413;DHT22;16389;50.126;8.450;2022-07-17T09:20:21;25.80;55.80
29413;DHT22;16389;50.126;8.450;2022-07-17T09:23:01;25.90;55.60
29413;DHT22;16389;50.126;8.450;2022-07-17T09:25:42;26.10;55.70
29413;DHT22;16389;50.126;8.450;2022-07-17T09:28:10;26.10;54.80
29413;DHT22;16389;50.126;8.450;2022-07-17T09:30:42;26.30;54.00
29413;DHT22;16389;50.126;8.450;2022-07-17T09:33:18;26.40;54.60
29413;DHT22;16389;50.126;8.450;2022-07-17T09:36:10;26.60;55.20
29413;DHT22;16389;50.126;8.450;2022-07-17T09:38:41;26.70;53.40
29413;DHT22;16389;50.126;8.450;2022-07-17T09:41:15;26.90;53.60
29413;DHT22;16389;50.126;8.450;2022-07-17T09:43:56;26.90;53.20
29413;DHT22;16389;50.126;8.450;2022-07-17T09:46:26;27.00;53.40
29413;DHT22;16389;50.126;8.450;2022-07-17T09:49:01;27.40;53.40
29413;DHT22;16389;50.126;8.450;2022-07-17T09:51:29;27.60;51.90
29413;DHT22;16389;50.126;8.450;2022-07-17T09:53:58;27.80;52.60
29413;DHT22;16389;50.126;8.450;2022-07-17T09:56:26;28.00;51.20
29413;DHT22;16389;50.126;8.450;2022-07-17T09:58:54;28.40;52.10
29413;DHT22;16389;50.126;8.450;2022-07-17T10:01:22;28.50;50.80
29413;DHT22;16389;50.126;8.450;2022-07-17T10:03:49;28.70;50.60
29413;DHT22;16389;50.126;8.450;2022-07-17T10:06:17;28.70;50.30
29413;DHT22;16389;50.126;8.450;2022-07-17T10:08:42;28.80;49.40
29413;DHT22;16389;50.126;8.450;2022-07-17T10:11:09;28.90;50.20
29413;DHT22;16389;50.126;8.450;2022-07-17T10:13:37;29.10;50.00
29413;DHT22;16389;50.126;8.450;2022-07-17T10:16:04;29.30;50.00
29413;DHT22;16389;50.126;8.450;2022-07-17T10:18:41;29.70;49.80
29413;DHT22;16389;50.126;8.450;2022-07-17T10:21:11;29.90;48.00
29413;DHT22;16389;50.126;8.450;2022-07-17T10:23:38;29.90;48.00
29413;DHT22;16389;50.126;8.450;2022-07-17T10:26:04;30.00;47.60
29413;DHT22;16389;50.126;8.450;2022-07-17T10:28:46;29.90;48.00
29413;DHT22;16389;50.126;8.450;2022-07-17T10:31:26;29.90;47.60
29413;DHT22;16389;50.126;8.450;2022-07-17T10:34:07;30.10;48.60
29413;DHT22;16389;50.126;8.450;2022-07-17T10:36:41;30.40;47.90
29413;DHT22;16389;50.126;8.450;2022-07-17T10:39:15;30.60;47.00
29413;DHT22;16389;50.126;8.450;2022-07-17T10:41:42;30.80;46.40
29413;DHT22;16389;50.126;8.450;2022-07-17T10:44:08;31.00;46.90
29413;DHT22;16389;50.126;8.450;2022-07-17T10:46:34;31.20;45.50
29413;DHT22;16389;50.126;8.450;2022-07-17T10:49:01;31.40;46.10
29413;DHT22;16389;50.126;8.450;2022-07-17T10:51:29;31.80;45.70
29413;DHT22;16389;50.126;8.450;2022-07-17T10:53:59;32.00;46.10
29413;DHT22;16389;50.126;8.450;2022-07-17T10:56:26;32.30;44.80
29413;DHT22;16389;50.126;8.450;2022-07-17T10:58:52;32.30;44.10
29413;DHT22;16389;50.126;8.450;2022-07-17T11:01:24;32.60;44.30
29413;DHT22;16389;50.126;8.450;2022-07-17T11:03:59;32.70;44.10
29413;DHT22;16389;50.126;8.450;2022-07-17T11:06:34;32.80;43.80
29413;DHT22;16389;50.126;8.450;2022-07-17T11:09:26;33.40;43.80
29413;DHT22;16389;50.126;8.450;2022-07-17T11:11:52;33.40;43.10
29413;DHT22;16389;50.126;8.450;2022-07-17T11:14:26;33.60;42.50
29413;DHT22;16389;50.126;8.450;2022-07-17T11:17:02;34.00;42.20
29413;DHT22;16389;50.126;8.450;2022-07-17T11:19:34;34.20;41.20
29413;DHT22;16389;50.126;8.450;2022-07-17T11:22:02;33.90;41.50
29413;DHT22;16389;50.126;8.450;2022-07-17T11:24:44;34.20;42.10
29413;DHT22;16389;50.126;8.450;2022-07-17T11:29:49;35.10;41.40
29413;DHT22;16389;50.126;8.450;2022-07-17T11:32:15;35.30;41.10
29413;DHT22;16389;50.126;8.450;2022-07-17T11:34:42;35.50;41.20
29413;DHT22;16389;50.126;8.450;2022-07-17T11:37:08;35.90;39.90
29413;DHT22;16389;50.126;8.450;2022-07-17T11:42:11;36.40;39.60
29413;DHT22;16389;50.126;8.450;2022-07-17T11:44:39;36.40;38.60
29413;DHT22;16389;50.126;8.450;2022-07-17T11:47:19;36.60;38.50
29413;DHT22;16389;50.126;8.450;2022-07-17T11:49:47;36.60;38.90
29413;DHT22;16389;50.126;8.450;2022-07-17T11:52:21;37.00;38.30
29413;DHT22;16389;50.126;8.450;2022-07-17T11:54:54;37.50;38.80
29413;DHT22;16389;50.126;8.450;2022-07-17T11:57:27;37.50;38.20
29413;DHT22;16389;50.126;8.450;2022-07-17T12:00:17;38.00;38.10
29413;DHT22;16389;50.126;8.450;2022-07-17T12:03:24;38.30;37.10
29413;DHT22;16389;50.126;8.450;2022-07-17T12:05:50;38.60;37.00
29413;DHT22;16389;50.126;8.450;2022-07-17T12:08:19;38.70;37.20
29413;DHT22;16389;50.126;8.450;2022-07-17T12:10:45;38.90;37.30
29413;DHT22;16389;50.126;8.450;2022-07-17T12:13:15;39.00;36.30
29413;DHT22;16389;50.126;8.450;2022-07-17T12:15:48;39.00;36.00
29413;DHT22;16389;50.126;8.450;2022-07-17T12:18:31;39.10;35.70
29413;DHT22;16389;50.126;8.450;2022-07-17T12:21:03;39.00;36.50
29413;DHT22;16389;50.126;8.450;2022-07-17T12:23:37;38.90;36.50
29413;DHT22;16389;50.126;8.450;2022-07-17T12:28:46;39.30;36.20
29413;DHT22;16389;50.126;8.450;2022-07-17T12:31:15;39.50;36.00
29413;DHT22;16389;50.126;8.450;2022-07-17T12:33:44;39.40;35.50
29413;DHT22;16389;50.126;8.450;2022-07-17T12:36:12;39.50;35.80
29413;DHT22;16389;50.126;8.450;2022-07-17T12:38:40;39.50;35.10
29413;DHT22;16389;50.126;8.450;2022-07-17T12:41:06;39.80;34.80
29413;DHT22;16389;50.126;8.450;2022-07-17T12:43:32;40.30;35.40
29413;DHT22;16389;50.126;8.450;2022-07-17T12:46:00;40.60;35.30
29413;DHT22;16389;50.126;8.450;2022-07-17T12:48:26;41.00;34.80
29413;DHT22;16389;50.126;8.450;2022-07-17T12:50:52;41.70;33.60
29413;DHT22;16389;50.126;8.450;2022-07-17T12:53:21;41.60;33.40
29413;DHT22;16389;50.126;8.450;2022-07-17T12:55:46;41.50;33.90
29413;DHT22;16389;50.126;8.450;2022-07-17T12:58:15;41.80;33.80
29413;DHT22;16389;50.126;8.450;2022-07-17T13:00:41;42.10;33.10
29413;DHT22;16389;50.126;8.450;2022-07-17T13:03:06;41.90;33.40
29413;DHT22;16389;50.126;8.450;2022-07-17T13:05:32;41.90;32.50
29413;DHT22;16389;50.126;8.450;2022-07-17T13:07:58;41.70;32.30
29413;DHT22;16389;50.126;8.450;2022-07-17T13:10:23;41.80;33.10
29413;DHT22;16389;50.126;8.450;2022-07-17T13:12:49;42.20;32.60
29413;DHT22;16389;50.126;8.450;2022-07-17T13:15:15;42.40;31.80
29413;DHT22;16389;50.126;8.450;2022-07-17T13:17:41;43.00;31.70
29413;DHT22;16389;50.126;8.450;2022-07-17T13:20:08;42.60;31.20
29413;DHT22;16389;50.126;8.450;2022-07-17T13:22:35;42.70;30.90
29413;DHT22;16389;50.126;8.450;2022-07-17T13:25:04;43.00;31.30
29413;DHT22;16389;50.126;8.450;2022-07-17T13:27:29;43.40;31.30
29413;DHT22;16389;50.126;8.450;2022-07-17T13:29:55;43.50;30.70
29413;DHT22;16389;50.126;8.450;2022-07-17T13:32:20;43.80;30.30
29413;DHT22;16389;50.126;8.450;2022-07-17T13:34:46;43.90;30.00
29413;DHT22;16389;50.126;8.450;2022-07-17T13:37:12;43.90;30.00
29413;DHT22;16389;50.126;8.450;2022-07-17T13:39:37;43.90;29.40
29413;DHT22;16389;50.126;8.450;2022-07-17T13:42:03;43.10;29.50
29413;DHT22;16389;50.126;8.450;2022-07-17T13:44:29;42.60;30.20
29413;DHT22;16389;50.126;8.450;2022-07-17T13:46:54;42.60;30.40
29413;DHT22;16389;50.126;8.450;2022-07-17T13:49:20;42.90;30.50
29413;DHT22;16389;50.126;8.450;2022-07-17T13:51:47;43.00;30.30
29413;DHT22;16389;50.126;8.450;2022-07-17T13:54:12;42.60;30.50
29413;DHT22;16389;50.126;8.450;2022-07-17T13:56:38;43.10;30.00
29413;DHT22;16389;50.126;8.450;2022-07-17T13:59:04;42.80;30.20
29413;DHT22;16389;50.126;8.450;2022-07-17T14:01:30;42.90;30.00
29413;DHT22;16389;50.126;8.450;2022-07-17T14:03:56;43.30;29.90
29413;DHT22;16389;50.126;8.450;2022-07-17T14:06:22;43.70;29.70
29413;DHT22;16389;50.126;8.450;2022-07-17T14:08:48;43.90;29.70
29413;DHT22;16389;50.126;8.450;2022-07-17T14:11:13;44.10;30.00
29413;DHT22;16389;50.126;8.450;2022-07-17T14:13:39;44.60;29.30
29413;DHT22;16389;50.126;8.450;2022-07-17T14:16:05;44.70;29.40
29413;DHT22;16389;50.126;8.450;2022-07-17T14:18:31;44.80;28.70
29413;DHT22;16389;50.126;8.450;2022-07-17T14:20:56;44.90;28.90
29413;DHT22;16389;50.126;8.450;2022-07-17T14:23:22;44.70;28.90
29413;DHT22;16389;50.126;8.450;2022-07-17T14:25:51;44.60;28.50
29413;DHT22;16389;50.126;8.450;2022-07-17T14:28:16;44.70;29.50
29413;DHT22;16389;50.126;8.450;2022-07-17T14:30:42;44.50;28.40
29413;DHT22;16389;50.126;8.450;2022-07-17T14:33:08;44.40;28.40
29413;DHT22;16389;50.126;8.450;2022-07-17T14:35:34;44.50;29.00
29413;DHT22;16389;50.126;8.450;2022-07-17T14:38:00;43.90;28.90
29413;DHT22;16389;50.126;8.450;2022-07-17T14:40:26;44.10;28.80
29413;DHT22;16389;50.126;8.450;2022-07-17T14:42:52;44.30;28.80
29413;DHT22;16389;50.126;8.450;2022-07-17T14:45:18;44.20;28.60
29413;DHT22;16389;50.126;8.450;2022-07-17T14:47:44;43.90;28.70
29413;DHT22;16389;50.126;8.450;2022-07-17T14:50:10;44.00;28.80
29413;DHT22;16389;50.126;8.450;2022-07-17T14:52:36;43.90;28.40
29413;DHT22;16389;50.126;8.450;2022-07-17T14:55:02;43.20;28.20
29413;DHT22;16389;50.126;8.450;2022-07-17T14:57:28;43.50;28.80
29413;DHT22;16389;50.126;8.450;2022-07-17T14:59:53;43.40;28.20
29413;DHT22;16389;50.126;8.450;2022-07-17T15:02:19;43.20;28.60
29413;DHT22;16389;50.126;8.450;2022-07-17T15:04:44;43.20;28.30
29413;DHT22;16389;50.126;8.450;2022-07-17T15:07:10;43.00;29.50
29413;DHT22;16389;50.126;8.450;2022-07-17T15:09:36;43.00;29.50
29413;DHT22;16389;50.126;8.450;2022-07-17T15:12:02;42.80;29.50
29413;DHT22;16389;50.126;8.450;2022-07-17T15:14:27;43.00;29.00
29413;DHT22;16389;50.126;8.450;2022-07-17T15:16:53;42.60;29.00
29413;DHT22;16389;50.126;8.450;2022-07-17T15:19:18;42.40;28.30
29413;DHT22;16389;50.126;8.450;2022-07-17T15:21:44;42.40;29.00
29413;DHT22;16389;50.126;8.450;2022-07-17T15:24:10;42.40;29.00
29413;DHT22;16389;50.126;8.450;2022-07-17T15:26:36;42.60;29.00
29413;DHT22;16389;50.126;8.450;2022-07-17T15:29:02;42.60;28.60
29413;DHT22;16389;50.126;8.450;2022-07-17T15:31:27;42.90;28.90
29413;DHT22;16389;50.126;8.450;2022-07-17T15:33:53;42.80;28.60
29413;DHT22;16389;50.126;8.450;2022-07-17T15:36:19;42.30;28.50
29413;DHT22;16389;50.126;8.450;2022-07-17T15:38:55;42.30;28.50